createdAt,value
2018-02-19T00:00:19.720Z,4.43
2018-02-19T00:01:19.903Z,4.44
2018-02-19T00:02:19.733Z,4.44
2018-02-19T00:03:19.741Z,4.45
2018-02-19T00:04:19.748Z,4.46
2018-02-19T00:05:19.578Z,4.47
2018-02-19T00:06:19.768Z,4.43
2018-02-19T00:07:19.881Z,4.46
2018-02-19T00:08:19.780Z,4.47
2018-02-19T00:09:19.813Z,4.46
2018-02-19T00:10:19.620Z,4.46
2018-02-19T00:11:19.771Z,4.42
2018-02-19T00:12:19.803Z,4.42
2018-02-19T00:13:19.777Z,4.4
2018-02-19T00:14:19.797Z,4.42
2018-02-19T00:15:19.798Z,4.42
2018-02-19T00:16:19.647Z,4.43
2018-02-19T00:17:19.649Z,4.46
2018-02-19T00:18:19.641Z,4.43
2018-02-19T00:19:19.654Z,4.45
2018-02-19T00:20:19.656Z,4.45
2018-02-19T00:21:19.666Z,4.45
2018-02-19T00:22:19.683Z,4.48
2018-02-19T00:23:19.683Z,4.47
2018-02-19T00:24:19.664Z,4.47
2018-02-19T00:25:19.866Z,4.46
2018-02-19T00:26:19.661Z,4.45
2018-02-19T00:27:19.712Z,4.46
2018-02-19T00:28:19.693Z,4.47
2018-02-19T00:29:19.695Z,4.46
2018-02-19T00:30:19.846Z,4.45
2018-02-19T00:31:19.863Z,4.44
2018-02-19T00:32:19.853Z,4.44
2018-02-19T00:33:19.855Z,4.44
2018-02-19T00:34:19.769Z,4.43
2018-02-19T00:35:19.714Z,4.42
2018-02-19T00:36:19.886Z,4.44
2018-02-19T00:37:19.878Z,4.44
2018-02-19T00:38:19.888Z,4.44
2018-02-19T00:39:19.730Z,4.44
2018-02-19T00:40:19.877Z,4.43
2018-02-19T00:41:19.890Z,4.44
2018-02-19T00:42:19.899Z,4.42
2018-02-19T00:43:19.896Z,4.43
2018-02-19T00:44:19.892Z,4.42
2018-02-19T00:45:19.910Z,4.45
2018-02-19T00:46:19.909Z,4.44
2018-02-19T00:47:19.909Z,4.44
2018-02-19T00:48:19.746Z,4.45
2018-02-19T00:49:19.910Z,4.45
2018-02-19T00:50:19.920Z,4.47
2018-02-19T00:51:19.925Z,4.44
2018-02-19T00:52:19.917Z,4.44
2018-02-19T00:53:19.909Z,4.46
2018-02-19T00:54:19.939Z,4.45
2018-02-19T00:55:19.940Z,4.45
2018-02-19T00:56:19.938Z,4.45
2018-02-19T00:57:19.942Z,4.45
2018-02-19T00:58:19.948Z,4.46
2018-02-19T00:59:19.953Z,4.46
2018-02-19T01:00:19.815Z,4.44
2018-02-19T01:01:19.953Z,4.45
2018-02-19T01:02:19.960Z,4.45
2018-02-19T01:03:19.944Z,4.42
2018-02-19T01:04:19.965Z,4.43
2018-02-19T01:05:20.004Z,4.43
2018-02-19T01:06:19.969Z,4.41
2018-02-19T01:07:19.962Z,4.41
2018-02-19T01:08:19.958Z,4.4
2018-02-19T01:09:19.805Z,4.39
2018-02-19T01:10:19.967Z,4.4
2018-02-19T01:11:19.822Z,4.4
2018-02-19T01:12:19.980Z,4.37
2018-02-19T01:13:20.021Z,4.37
2018-02-19T01:14:19.991Z,4.38
2018-02-19T01:15:20.007Z,4.4
2018-02-19T01:16:20.028Z,4.41
2018-02-19T01:17:19.860Z,4.4
2018-02-19T01:18:20.026Z,4.39
2018-02-19T01:19:20.011Z,4.39
2018-02-19T01:20:19.870Z,4.4
2018-02-19T01:21:19.877Z,4.4
2018-02-19T01:22:19.867Z,4.4
2018-02-19T01:23:20.030Z,4.42
2018-02-19T01:24:20.030Z,4.42
2018-02-19T01:25:20.355Z,4.42
2018-02-19T01:26:20.045Z,4.41
2018-02-19T01:27:20.050Z,4.42
2018-02-19T01:28:20.033Z,4.43
2018-02-19T01:29:20.047Z,4.42
2018-02-19T01:30:20.072Z,4.39
2018-02-19T01:31:20.051Z,4.4
2018-02-19T01:32:20.061Z,4.4
2018-02-19T01:33:20.107Z,4.4
2018-02-19T01:34:20.072Z,4.38
2018-02-19T01:35:20.207Z,4.4
2018-02-19T01:36:20.082Z,4.41
2018-02-19T01:37:19.927Z,4.4
2018-02-19T01:38:20.080Z,4.41
2018-02-19T01:39:19.930Z,4.41
2018-02-19T01:40:20.100Z,4.4
2018-02-19T01:41:20.081Z,4.39
2018-02-19T01:42:19.942Z,4.39
2018-02-19T01:43:20.101Z,4.41
2018-02-19T01:44:19.926Z,4.42
2018-02-19T01:45:20.101Z,4.42
2018-02-19T01:46:20.081Z,4.42
2018-02-19T01:47:20.084Z,4.41
2018-02-19T01:48:20.084Z,4.43
2018-02-19T01:49:20.096Z,4.44
2018-02-19T01:50:20.090Z,4.45
2018-02-19T01:51:20.091Z,4.44
2018-02-19T01:52:19.945Z,4.42
2018-02-19T01:53:19.955Z,4.43
2018-02-19T01:54:19.974Z,4.43
2018-02-19T01:55:19.967Z,4.43
2018-02-19T01:56:19.976Z,4.42
2018-02-19T01:57:19.942Z,4.45
2018-02-19T01:58:20.135Z,4.42
2018-02-19T01:59:20.106Z,4.43
2018-02-19T02:00:20.106Z,4.44
2018-02-19T02:01:20.139Z,4.45
2018-02-19T02:02:20.113Z,4.43
2018-02-19T02:03:20.123Z,4.4
2018-02-19T02:04:20.123Z,4.42
2018-02-19T02:05:20.132Z,4.4
2018-02-19T02:06:20.416Z,4.39
2018-02-19T02:07:19.965Z,4.39
2018-02-19T02:08:20.139Z,4.4
2018-02-19T02:09:19.990Z,4.4
2018-02-19T02:10:20.150Z,4.4
2018-02-19T02:11:20.021Z,4.37
2018-02-19T02:12:20.179Z,4.43
2018-02-19T02:13:20.173Z,4.39
2018-02-19T02:14:20.192Z,4.39
2018-02-19T02:15:20.168Z,4.38
2018-02-19T02:16:20.195Z,4.39
2018-02-19T02:17:20.187Z,4.35
2018-02-19T02:18:20.182Z,4.36
2018-02-19T02:19:20.179Z,4.36
2018-02-19T02:20:20.049Z,4.34
2018-02-19T02:21:20.204Z,4.33
2018-02-19T02:22:20.197Z,4.35
2018-02-19T02:23:20.206Z,4.35
2018-02-19T02:24:20.213Z,4.35
2018-02-19T02:25:20.210Z,4.34
2018-02-19T02:26:20.227Z,4.35
2018-02-19T02:27:20.197Z,4.34
2018-02-19T02:28:20.203Z,4.37
2018-02-19T02:29:20.221Z,4.37
2018-02-19T02:30:20.223Z,4.37
2018-02-19T02:31:20.465Z,4.36
2018-02-19T02:32:20.241Z,4.37
2018-02-19T02:33:20.082Z,4.39
2018-02-19T02:34:20.223Z,4.38
2018-02-19T02:35:20.080Z,4.37
2018-02-19T02:36:20.270Z,4.35
2018-02-19T02:37:20.068Z,4.35
2018-02-19T02:38:20.246Z,4.36
2018-02-19T02:39:20.274Z,4.37
2018-02-19T02:40:20.085Z,4.38
2018-02-19T02:41:20.384Z,4.37
2018-02-19T02:42:20.091Z,4.37
2018-02-19T02:43:20.100Z,4.36
2018-02-19T02:44:20.110Z,4.32
2018-02-19T02:45:20.129Z,4.33
2018-02-19T02:46:20.356Z,4.36
2018-02-19T02:47:20.156Z,4.35
2018-02-19T02:48:20.103Z,4.37
2018-02-19T02:49:20.191Z,4.34
2018-02-19T02:50:20.158Z,4.32
2018-02-19T02:51:20.143Z,4.33
2018-02-19T02:52:20.138Z,4.34
2018-02-19T02:53:20.144Z,4.33
2018-02-19T02:54:20.136Z,4.34
2018-02-19T02:55:20.174Z,4.32
2018-02-19T02:56:20.151Z,4.33
2018-02-19T02:57:20.136Z,4.33
2018-02-19T02:58:20.157Z,4.34
2018-02-19T02:59:20.169Z,4.34
2018-02-19T03:00:20.163Z,4.32
2018-02-19T03:01:20.156Z,4.33
2018-02-19T03:02:20.195Z,4.29
2018-02-19T03:03:20.229Z,4.28
2018-02-19T03:04:20.177Z,4.3
2018-02-19T03:05:20.198Z,4.31
2018-02-19T03:06:20.205Z,4.33
2018-02-19T03:07:20.158Z,4.29
2018-02-19T03:08:20.167Z,4.3
2018-02-19T03:09:20.337Z,4.31
2018-02-19T03:10:20.329Z,4.29
2018-02-19T03:11:20.371Z,4.27
2018-02-19T03:12:20.398Z,4.3
2018-02-19T03:13:20.350Z,4.29
2018-02-19T03:14:20.178Z,4.29
2018-02-19T03:15:20.192Z,4.3
2018-02-19T03:16:20.180Z,4.28
2018-02-19T03:17:20.243Z,4.27
2018-02-19T03:18:20.338Z,4.3
2018-02-19T03:19:20.375Z,4.29
2018-02-19T03:20:20.197Z,4.28
2018-02-19T03:21:20.367Z,4.3
2018-02-19T03:22:20.202Z,4.31
2018-02-19T03:23:20.380Z,4.29
2018-02-19T03:24:20.367Z,4.29
2018-02-19T03:25:20.345Z,4.27
2018-02-19T03:26:20.214Z,4.28
2018-02-19T03:27:20.211Z,4.3
2018-02-19T03:28:20.217Z,4.29
2018-02-19T03:29:20.416Z,4.27
2018-02-19T03:30:20.259Z,4.27
2018-02-19T03:31:20.269Z,4.26
2018-02-19T03:32:20.246Z,4.25
2018-02-19T03:33:20.226Z,4.25
2018-02-19T03:34:20.243Z,4.25
2018-02-19T03:35:20.258Z,4.26
2018-02-19T03:36:20.271Z,4.24
2018-02-19T03:37:20.255Z,4.25
2018-02-19T03:38:20.272Z,4.23
2018-02-19T03:39:20.243Z,4.22
2018-02-19T03:40:20.269Z,4.24
2018-02-19T03:41:20.296Z,4.25
2018-02-19T03:42:20.422Z,4.23
2018-02-19T03:43:20.278Z,4.24
2018-02-19T03:44:20.261Z,4.23
2018-02-19T03:45:20.276Z,4.23
2018-02-19T03:46:20.429Z,4.22
2018-02-19T03:47:20.291Z,4.21
2018-02-19T03:48:20.276Z,4.21
2018-02-19T03:49:20.267Z,4.22
2018-02-19T03:50:20.267Z,4.22
2018-02-19T03:51:20.292Z,4.21
2018-02-19T03:52:20.448Z,4.2
2018-02-19T03:53:20.257Z,4.2
2018-02-19T03:54:20.271Z,4.22
2018-02-19T03:55:20.279Z,4.2
2018-02-19T03:56:20.458Z,4.19
2018-02-19T03:57:20.319Z,4.19
2018-02-19T03:58:20.309Z,4.2
2018-02-19T03:59:20.297Z,4.19
2018-02-19T04:00:20.291Z,4.21
2018-02-19T04:01:20.296Z,4.18
2018-02-19T04:02:20.353Z,4.2
2018-02-19T04:03:20.326Z,4.2
2018-02-19T04:04:20.316Z,4.2
2018-02-19T04:05:20.345Z,4.23
2018-02-19T04:06:20.315Z,4.21
2018-02-19T04:07:20.483Z,4.21
2018-02-19T04:08:20.365Z,4.25
2018-02-19T04:09:20.331Z,4.24
2018-02-19T04:10:20.355Z,4.2
2018-02-19T04:11:20.340Z,4.2
2018-02-19T04:12:20.337Z,4.23
2018-02-19T04:13:20.418Z,4.22
2018-02-19T04:14:20.348Z,4.2
2018-02-19T04:15:20.369Z,4.19
2018-02-19T04:16:20.362Z,4.2
2018-02-19T04:17:20.352Z,4.2
2018-02-19T04:18:20.362Z,4.2
2018-02-19T04:19:20.376Z,4.2
2018-02-19T04:20:20.346Z,4.19
2018-02-19T04:21:20.528Z,4.18
2018-02-19T04:22:20.520Z,4.2
2018-02-19T04:23:20.509Z,4.19
2018-02-19T04:24:20.538Z,4.18
2018-02-19T04:25:20.526Z,4.19
2018-02-19T04:26:20.514Z,4.19
2018-02-19T04:27:20.388Z,4.18
2018-02-19T04:28:20.544Z,4.17
2018-02-19T04:29:20.390Z,4.17
2018-02-19T04:30:20.388Z,4.19
2018-02-19T04:31:20.550Z,4.2
2018-02-19T04:32:20.389Z,4.21
2018-02-19T04:33:20.384Z,4.21
2018-02-19T04:34:20.608Z,4.22
2018-02-19T04:35:20.556Z,4.18
2018-02-19T04:36:20.601Z,4.18
2018-02-19T04:37:20.584Z,4.18
2018-02-19T04:38:20.419Z,4.18
2018-02-19T04:39:20.639Z,4.17
2018-02-19T04:40:20.429Z,4.18
2018-02-19T04:41:20.595Z,4.2
2018-02-19T04:42:20.436Z,4.2
2018-02-19T04:43:20.728Z,4.16
2018-02-19T04:44:20.425Z,4.17
2018-02-19T04:45:20.600Z,4.17
2018-02-19T04:46:20.597Z,4.16
2018-02-19T04:47:20.621Z,4.17
2018-02-19T04:48:20.468Z,4.15
2018-02-19T04:49:20.611Z,4.16
2018-02-19T04:50:20.636Z,4.17
2018-02-19T04:51:20.474Z,4.17
2018-02-19T04:52:20.650Z,4.17
2018-02-19T04:53:20.459Z,4.17
2018-02-19T04:54:20.649Z,4.15
2018-02-19T04:55:20.472Z,4.16
2018-02-19T04:56:20.502Z,4.17
2018-02-19T04:57:20.504Z,4.17
2018-02-19T04:58:20.493Z,4.14
2018-02-19T04:59:20.491Z,4.15
2018-02-19T05:00:20.513Z,4.15
2018-02-19T05:01:20.477Z,4.16
2018-02-19T05:02:20.500Z,4.15
2018-02-19T05:03:20.502Z,4.14
2018-02-19T05:04:20.501Z,4.15
2018-02-19T05:05:20.494Z,4.15
2018-02-19T05:06:20.501Z,4.17
2018-02-19T05:07:20.516Z,4.15
2018-02-19T05:08:20.536Z,4.15
2018-02-19T05:09:20.523Z,4.13
2018-02-19T05:10:20.520Z,4.13
2018-02-19T05:11:20.533Z,4.14
2018-02-19T05:12:20.545Z,4.13
2018-02-19T05:13:20.581Z,4.11
2018-02-19T05:14:20.556Z,4.13
2018-02-19T05:15:20.540Z,4.14
2018-02-19T05:16:20.536Z,4.13
2018-02-19T05:17:20.553Z,4.11
2018-02-19T05:18:20.590Z,4.11
2018-02-19T05:19:20.581Z,4.12
2018-02-19T05:20:20.570Z,4.12
2018-02-19T05:21:20.549Z,4.14
2018-02-19T05:22:20.581Z,4.13
2018-02-19T05:23:20.574Z,4.11
2018-02-19T05:24:20.600Z,4.15
2018-02-19T05:25:20.599Z,4.13
2018-02-19T05:26:20.595Z,4.11
2018-02-19T05:27:20.607Z,4.14
2018-02-19T05:28:20.644Z,4.11
2018-02-19T05:29:20.600Z,4.13
2018-02-19T05:30:20.608Z,4.12
2018-02-19T05:31:20.620Z,4.11
2018-02-19T05:32:20.788Z,4.11
2018-02-19T05:33:20.892Z,4.11
2018-02-19T05:34:20.780Z,4.1
2018-02-19T05:35:20.616Z,4.08
2018-02-19T05:36:20.785Z,4.1
2018-02-19T05:37:20.786Z,4.09
2018-02-19T05:38:20.812Z,4.09
2018-02-19T05:39:20.810Z,4.09
2018-02-19T05:40:20.808Z,4.09
2018-02-19T05:41:20.617Z,4.08
2018-02-19T05:42:20.805Z,4.07
2018-02-19T05:43:20.827Z,4.08
2018-02-19T05:44:20.748Z,4.08
2018-02-19T05:45:20.789Z,4.07
2018-02-19T05:46:20.810Z,4.08
2018-02-19T05:47:20.644Z,4.08
2018-02-19T05:48:20.810Z,4.07
2018-02-19T05:49:20.676Z,4.07
2018-02-19T05:50:20.647Z,4.07
2018-02-19T05:51:20.823Z,4.07
2018-02-19T05:52:20.837Z,4.08
2018-02-19T05:53:20.825Z,4.08
2018-02-19T05:54:20.844Z,4.11
2018-02-19T05:55:20.832Z,4.12
2018-02-19T05:56:20.687Z,4.08
2018-02-19T05:57:20.678Z,4.08
2018-02-19T05:58:20.686Z,4.08
2018-02-19T05:59:20.731Z,4.08
2018-02-19T06:00:20.697Z,4.08
2018-02-19T06:01:20.686Z,4.08
2018-02-19T06:02:20.854Z,4.08
2018-02-19T06:03:20.864Z,4.07
2018-02-19T06:04:20.732Z,4.07
2018-02-19T06:05:20.744Z,4.08
2018-02-19T06:06:20.906Z,4.08
2018-02-19T06:07:20.697Z,4.09
2018-02-19T06:08:20.707Z,4.09
2018-02-19T06:09:20.981Z,4.09
2018-02-19T06:10:20.725Z,4.1
2018-02-19T06:11:20.722Z,4.08
2018-02-19T06:12:20.724Z,4.07
2018-02-19T06:13:20.736Z,4.09
2018-02-19T06:14:20.744Z,4.09
2018-02-19T06:15:20.800Z,4.07
2018-02-19T06:16:20.739Z,4.06
2018-02-19T06:17:20.737Z,4.06
2018-02-19T06:18:20.767Z,4.07
2018-02-19T06:19:20.771Z,4.06
2018-02-19T06:20:20.743Z,4.07
2018-02-19T06:21:20.762Z,4.1
2018-02-19T06:22:20.741Z,4.09
2018-02-19T06:23:20.760Z,4.09
2018-02-19T06:24:20.805Z,4.09
2018-02-19T06:25:20.921Z,4.09
2018-02-19T06:26:20.777Z,4.07
2018-02-19T06:27:20.787Z,4.08
2018-02-19T06:28:20.772Z,4.08
2018-02-19T06:29:20.806Z,4.08
2018-02-19T06:30:20.789Z,4.09
2018-02-19T06:31:20.853Z,4.08
2018-02-19T06:32:20.874Z,4.09
2018-02-19T06:33:20.775Z,4.08
2018-02-19T06:34:20.828Z,4.08
2018-02-19T06:35:20.831Z,4.07
2018-02-19T06:36:20.831Z,4.06
2018-02-19T06:37:20.807Z,4.06
2018-02-19T06:38:20.813Z,4.08
2018-02-19T06:39:20.803Z,4.1
2018-02-19T06:40:20.816Z,4.09
2018-02-19T06:41:20.834Z,4.09
2018-02-19T06:42:20.826Z,4.08
2018-02-19T06:43:21.092Z,4.08
2018-02-19T06:44:20.996Z,4.09
2018-02-19T06:45:21.047Z,4.08
2018-02-19T06:46:20.850Z,4.09
2018-02-19T06:47:21.017Z,4.11
2018-02-19T06:48:21.025Z,4.09
2018-02-19T06:49:20.848Z,4.09
2018-02-19T06:50:20.903Z,4.09
2018-02-19T06:51:21.043Z,4.08
2018-02-19T06:52:20.913Z,4.1
2018-02-19T06:53:21.090Z,4.08
2018-02-19T06:54:21.315Z,4.09
2018-02-19T06:55:21.071Z,4.09
2018-02-19T06:56:21.053Z,4.09
2018-02-19T06:57:20.892Z,4.09
2018-02-19T06:58:20.898Z,4.1
2018-02-19T06:59:20.893Z,4.1
2018-02-19T07:00:20.897Z,4.11
2018-02-19T07:01:20.950Z,4.12
2018-02-19T07:02:20.914Z,4.11
2018-02-19T07:03:20.916Z,4.1
2018-02-19T07:04:21.101Z,4.08
2018-02-19T07:05:20.923Z,4.08
2018-02-19T07:06:21.098Z,4.08
2018-02-19T07:07:20.925Z,4.09
2018-02-19T07:08:20.928Z,4.06
2018-02-19T07:09:21.095Z,4.09
2018-02-19T07:10:21.077Z,4.07
2018-02-19T07:11:20.935Z,4.07
2018-02-19T07:12:20.968Z,4.07
2018-02-19T07:13:21.143Z,4.08
2018-02-19T07:14:20.934Z,4.1
2018-02-19T07:15:21.112Z,4.08
2018-02-19T07:16:20.968Z,4.08
2018-02-19T07:17:21.112Z,4.06
2018-02-19T07:18:20.994Z,4.07
2018-02-19T07:19:20.970Z,4.08
2018-02-19T07:20:21.076Z,4.07
2018-02-19T07:21:20.959Z,4.07
2018-02-19T07:22:20.962Z,4.07
2018-02-19T07:23:21.154Z,4.08
2018-02-19T07:24:20.967Z,4.08
2018-02-19T07:25:20.986Z,4.09
2018-02-19T07:26:21.018Z,4.1
2018-02-19T07:27:21.155Z,4.11
2018-02-19T07:28:21.020Z,4.1
2018-02-19T07:29:21.006Z,4.07
2018-02-19T07:30:20.995Z,4.07
2018-02-19T07:31:21.010Z,4.09
2018-02-19T07:32:21.009Z,4.08
2018-02-19T07:33:20.986Z,4.08
2018-02-19T07:34:20.989Z,4.06
2018-02-19T07:35:20.979Z,4.07
2018-02-19T07:36:21.028Z,4.08
2018-02-19T07:37:21.010Z,4.07
2018-02-19T07:38:20.993Z,4.09
2018-02-19T07:39:21.310Z,4.08
2018-02-19T07:40:21.016Z,4.1
2018-02-19T07:41:21.046Z,4.09
2018-02-19T07:42:21.020Z,4.09
2018-02-19T07:43:21.028Z,4.08
2018-02-19T07:44:21.383Z,4.07
2018-02-19T07:45:21.073Z,4.07
2018-02-19T07:46:21.064Z,4.07
2018-02-19T07:47:21.048Z,4.07
2018-02-19T07:48:21.085Z,4.09
2018-02-19T07:49:21.049Z,4.11
2018-02-19T07:50:21.087Z,4.1
2018-02-19T07:51:21.122Z,4.14
2018-02-19T07:52:21.089Z,4.11
2018-02-19T07:53:21.089Z,4.11
2018-02-19T07:54:21.080Z,4.12
2018-02-19T07:55:21.248Z,4.1
2018-02-19T07:56:21.243Z,4.1
2018-02-19T07:57:21.282Z,4.1
2018-02-19T07:58:21.201Z,4.1
2018-02-19T07:59:21.254Z,4.09
2018-02-19T08:00:21.131Z,4.09
2018-02-19T08:01:21.146Z,4.08
2018-02-19T08:02:21.073Z,4.09
2018-02-19T08:03:21.077Z,4.08
2018-02-19T08:04:21.095Z,4.08
2018-02-19T08:05:21.119Z,4.09
2018-02-19T08:06:21.079Z,4.11
2018-02-19T08:07:21.116Z,4.09
2018-02-19T08:08:21.088Z,4.1
2018-02-19T08:09:21.118Z,4.11
2018-02-19T08:10:21.118Z,4.1
2018-02-19T08:11:21.263Z,4.11
2018-02-19T08:12:21.274Z,4.12
2018-02-19T08:13:21.098Z,4.1
2018-02-19T08:14:21.174Z,4.11
2018-02-19T08:15:21.120Z,4.12
2018-02-19T08:16:21.114Z,4.11
2018-02-19T08:17:21.118Z,4.13
2018-02-19T08:18:21.129Z,4.13
2018-02-19T08:19:21.122Z,4.11
2018-02-19T08:20:21.123Z,4.11
2018-02-19T08:21:21.150Z,4.11
2018-02-19T08:22:21.139Z,4.1
2018-02-19T08:23:21.145Z,4.11
2018-02-19T08:24:21.132Z,4.11
2018-02-19T08:25:21.126Z,4.13
2018-02-19T08:26:21.174Z,4.13
2018-02-19T08:27:21.147Z,4.11
2018-02-19T08:28:21.311Z,4.12
2018-02-19T08:29:21.162Z,4.13
2018-02-19T08:30:21.168Z,4.14
2018-02-19T08:31:21.159Z,4.14
2018-02-19T08:32:21.181Z,4.12
2018-02-19T08:33:21.207Z,4.15
2018-02-19T08:34:21.174Z,4.15
2018-02-19T08:35:21.205Z,4.14
2018-02-19T08:36:21.200Z,4.17
2018-02-19T08:37:21.173Z,4.16
2018-02-19T08:38:21.178Z,4.15
2018-02-19T08:39:21.195Z,4.13
2018-02-19T08:40:21.186Z,4.13
2018-02-19T08:41:21.212Z,4.14
2018-02-19T08:42:21.200Z,4.14
2018-02-19T08:43:21.209Z,4.14
2018-02-19T08:44:21.247Z,4.14
2018-02-19T08:45:21.241Z,4.15
2018-02-19T08:46:21.259Z,4.15
2018-02-19T08:47:21.214Z,4.14
2018-02-19T08:48:21.245Z,4.12
2018-02-19T08:49:21.212Z,4.14
2018-02-19T08:50:21.230Z,4.15
2018-02-19T08:51:21.254Z,4.15
2018-02-19T08:52:21.240Z,4.16
2018-02-19T08:53:21.303Z,4.15
2018-02-19T08:54:21.248Z,4.15
2018-02-19T08:55:21.214Z,4.17
2018-02-19T08:56:21.270Z,4.16
2018-02-19T08:57:21.257Z,4.16
2018-02-19T08:58:21.238Z,4.16
2018-02-19T08:59:21.266Z,4.16
2018-02-19T09:00:21.427Z,4.14
2018-02-19T09:01:21.296Z,4.16
2018-02-19T09:02:21.554Z,4.16
2018-02-19T09:03:21.270Z,4.16
2018-02-19T09:04:21.277Z,4.17
2018-02-19T09:05:21.276Z,4.14
2018-02-19T09:06:21.274Z,4.14
2018-02-19T09:07:21.466Z,4.16
2018-02-19T09:08:21.429Z,4.15
2018-02-19T09:09:21.292Z,4.14
2018-02-19T09:10:21.464Z,4.16
2018-02-19T09:11:21.451Z,4.17
2018-02-19T09:12:21.329Z,4.2
2018-02-19T09:13:21.493Z,4.21
2018-02-19T09:14:21.325Z,4.2
2018-02-19T09:15:21.402Z,4.18
2018-02-19T09:16:21.467Z,4.18
2018-02-19T09:17:21.327Z,4.19
2018-02-19T09:18:21.315Z,4.2
2018-02-19T09:19:21.470Z,4.21
2018-02-19T09:20:21.498Z,4.18
2018-02-19T09:21:21.341Z,4.19
2018-02-19T09:22:21.349Z,4.19
2018-02-19T09:23:21.341Z,4.2
2018-02-19T09:24:21.341Z,4.21
2018-02-19T09:25:21.493Z,4.21
2018-02-19T09:26:21.498Z,4.23
2018-02-19T09:27:21.595Z,4.19
2018-02-19T09:28:21.592Z,4.19
2018-02-19T09:29:21.339Z,4.19
2018-02-19T09:30:21.372Z,4.2
2018-02-19T09:31:21.354Z,4.19
2018-02-19T09:32:21.502Z,4.21
2018-02-19T09:33:21.376Z,4.19
2018-02-19T09:34:21.532Z,4.19
2018-02-19T09:35:21.517Z,4.2
2018-02-19T09:36:21.517Z,4.17
2018-02-19T09:37:21.383Z,4.17
2018-02-19T09:38:21.548Z,4.18
2018-02-19T09:39:21.371Z,4.19
2018-02-19T09:40:21.373Z,4.2
2018-02-19T09:41:21.498Z,4.21
2018-02-19T09:42:21.552Z,4.2
2018-02-19T09:43:21.392Z,4.2
2018-02-19T09:44:21.404Z,4.19
2018-02-19T09:45:21.407Z,4.2
2018-02-19T09:46:21.453Z,4.2
2018-02-19T09:47:21.422Z,4.17
2018-02-19T09:48:21.578Z,4.19
2018-02-19T09:49:21.421Z,4.23
2018-02-19T09:50:21.411Z,4.21
2018-02-19T09:51:21.455Z,4.22
2018-02-19T09:52:21.412Z,4.21
2018-02-19T09:53:21.415Z,4.23
2018-02-19T09:54:21.428Z,4.26
2018-02-19T09:55:21.448Z,4.23
2018-02-19T09:56:21.444Z,4.22
2018-02-19T09:57:21.449Z,4.23
2018-02-19T09:58:21.470Z,4.2
2018-02-19T09:59:21.443Z,4.23
2018-02-19T10:00:21.465Z,4.21
2018-02-19T10:01:21.596Z,4.22
2018-02-19T10:02:21.473Z,4.2
2018-02-19T10:03:21.609Z,4.2
2018-02-19T10:04:21.465Z,4.2
2018-02-19T10:05:21.477Z,4.22
2018-02-19T10:06:21.562Z,4.2
2018-02-19T10:07:21.501Z,4.2
2018-02-19T10:08:21.469Z,4.22
2018-02-19T10:09:21.467Z,4.21
2018-02-19T10:10:21.510Z,4.22
2018-02-19T10:11:21.603Z,4.2
2018-02-19T10:12:21.471Z,4.19
2018-02-19T10:13:21.473Z,4.2
2018-02-19T10:14:21.491Z,4.22
2018-02-19T10:15:21.668Z,4.22
2018-02-19T10:16:21.610Z,4.22
2018-02-19T10:17:21.536Z,4.24
2018-02-19T10:18:21.514Z,4.21
2018-02-19T10:19:21.665Z,4.22
2018-02-19T10:20:21.667Z,4.24
2018-02-19T10:21:21.674Z,4.22
2018-02-19T10:22:21.696Z,4.23
2018-02-19T10:23:21.666Z,4.24
2018-02-19T10:24:21.942Z,4.22
2018-02-19T10:25:21.686Z,4.25
2018-02-19T10:26:21.674Z,4.22
2018-02-19T10:27:21.556Z,4.24
2018-02-19T10:28:21.686Z,4.25
2018-02-19T10:29:21.694Z,4.25
2018-02-19T10:30:21.882Z,4.21
2018-02-19T10:31:21.727Z,4.21
2018-02-19T10:32:21.738Z,4.23
2018-02-19T10:33:21.707Z,4.24
2018-02-19T10:34:21.735Z,4.19
2018-02-19T10:35:21.727Z,4.22
2018-02-19T10:36:21.742Z,4.23
2018-02-19T10:37:22.056Z,4.18
2018-02-19T10:38:21.734Z,4.21
2018-02-19T10:39:21.572Z,4.2
2018-02-19T10:40:21.728Z,4.21
2018-02-19T10:41:21.736Z,4.18
2018-02-19T10:42:21.749Z,4.2
2018-02-19T10:43:21.730Z,4.19
2018-02-19T10:44:21.748Z,4.18
2018-02-19T10:45:21.590Z,4.18
2018-02-19T10:46:21.807Z,4.18
2018-02-19T10:47:21.611Z,4.21
2018-02-19T10:48:21.600Z,4.18
2018-02-19T10:49:21.858Z,4.19
2018-02-19T10:50:21.784Z,4.17
2018-02-19T10:51:21.794Z,4.19
2018-02-19T10:52:21.613Z,4.16
2018-02-19T10:53:21.770Z,4.14
2018-02-19T10:54:21.607Z,4.18
2018-02-19T10:55:21.613Z,4.17
2018-02-19T10:56:21.678Z,4.16
2018-02-19T10:57:21.621Z,4.18
2018-02-19T10:58:21.619Z,4.17
2018-02-19T10:59:21.659Z,4.2
2018-02-19T11:00:21.611Z,4.19
2018-02-19T11:01:21.835Z,4.15
2018-02-19T11:02:21.640Z,4.15
2018-02-19T11:03:21.626Z,4.15
2018-02-19T11:04:21.636Z,4.13
2018-02-19T11:05:21.649Z,4.19
2018-02-19T11:06:21.672Z,4.12
2018-02-19T11:07:21.652Z,4.13
2018-02-19T11:08:21.661Z,4.16
2018-02-19T11:09:21.683Z,4.12
2018-02-19T11:10:22.751Z,4.16
2018-02-19T11:11:21.680Z,4.15
2018-02-19T11:12:21.656Z,4.16
2018-02-19T11:13:21.912Z,4.16
2018-02-19T11:14:21.680Z,4.14
2018-02-19T11:15:21.662Z,4.15
2018-02-19T11:16:21.737Z,4.13
2018-02-19T11:17:21.668Z,4.12
2018-02-19T11:18:21.673Z,4.11
2018-02-19T11:19:21.681Z,4.14
2018-02-19T11:20:21.694Z,4.14
2018-02-19T11:21:21.887Z,4.13
2018-02-19T11:22:21.747Z,4.15
2018-02-19T11:23:21.710Z,4.15
2018-02-19T11:24:21.706Z,4.15
2018-02-19T11:25:21.696Z,4.15
2018-02-19T11:26:21.710Z,4.15
2018-02-19T11:27:21.983Z,4.11
2018-02-19T11:28:21.956Z,4.12
2018-02-19T11:29:21.726Z,4.15
2018-02-19T11:30:21.886Z,4.16
2018-02-19T11:31:21.997Z,4.17
2018-02-19T11:32:22.003Z,4.19
2018-02-19T11:33:21.925Z,4.19
2018-02-19T11:34:21.922Z,4.18
2018-02-19T11:35:21.918Z,4.17
2018-02-19T11:36:21.931Z,4.18
2018-02-19T11:37:22.064Z,4.21
2018-02-19T11:38:21.908Z,4.24
2018-02-19T11:39:31.525Z,4.25
2018-02-19T11:40:21.745Z,4.19
2018-02-19T11:41:21.972Z,4.17
2018-02-19T11:42:21.753Z,4.16
2018-02-19T11:43:21.782Z,4.2
2018-02-19T11:44:22.012Z,4.19
2018-02-19T11:45:21.963Z,4.22
2018-02-19T11:46:21.885Z,4.18
2018-02-19T11:47:21.902Z,4.19
2018-02-19T11:48:22.022Z,4.16
2018-02-19T11:49:22.009Z,4.18
2018-02-19T11:50:21.958Z,4.16
2018-02-19T11:51:21.962Z,4.18
2018-02-19T11:52:21.950Z,4.22
2018-02-19T11:53:21.965Z,4.21
2018-02-19T11:54:21.953Z,4.18
2018-02-19T11:55:21.952Z,4.18
2018-02-19T11:56:21.948Z,4.18
2018-02-19T11:57:21.973Z,4.13
2018-02-19T11:58:22.261Z,4.15
2018-02-19T11:59:21.970Z,4.13
2018-02-19T12:00:21.976Z,4.13
2018-02-19T12:01:21.792Z,4.12
2018-02-19T12:02:21.989Z,4.17
2018-02-19T12:03:21.994Z,4.13
2018-02-19T12:04:21.803Z,4.13
2018-02-19T12:05:21.813Z,4.15
2018-02-19T12:06:21.815Z,4.12
2018-02-19T12:07:21.829Z,4.06
2018-02-19T12:08:21.827Z,4.03
2018-02-19T12:09:21.884Z,4.04
2018-02-19T12:10:21.844Z,4.06
2018-02-19T12:11:21.858Z,4.09
2018-02-19T12:12:22.007Z,4.06
2018-02-19T12:13:21.862Z,4.06
2018-02-19T12:14:21.869Z,4.05
2018-02-19T12:15:21.862Z,4.02
2018-02-19T12:16:21.888Z,4.04
2018-02-19T12:17:21.858Z,4.06
2018-02-19T12:18:22.134Z,4.06
2018-02-19T12:19:21.855Z,4.04
2018-02-19T12:20:21.862Z,4.05
2018-02-19T12:21:21.863Z,4.04
2018-02-19T12:22:21.894Z,4.05
2018-02-19T12:23:21.909Z,4.04
2018-02-19T12:24:21.879Z,3.99
2018-02-19T12:25:21.880Z,3.99
2018-02-19T12:26:21.986Z,4
2018-02-19T12:27:21.885Z,4.03
2018-02-19T12:28:21.893Z,4.04
2018-02-19T12:29:21.874Z,4.04
2018-02-19T12:30:21.864Z,4.01
2018-02-19T12:31:21.901Z,4.01
2018-02-19T12:32:21.885Z,3.99
2018-02-19T12:33:21.939Z,3.94
2018-02-19T12:34:21.996Z,3.96
2018-02-19T12:35:22.060Z,3.99
2018-02-19T12:36:22.043Z,3.99
2018-02-19T12:37:21.879Z,4
2018-02-19T12:38:21.916Z,4.03
2018-02-19T12:39:21.924Z,4.04
2018-02-19T12:40:21.898Z,4.05
2018-02-19T12:41:22.079Z,4.03
2018-02-19T12:42:22.081Z,4.07
2018-02-19T12:43:22.091Z,4.05
2018-02-19T12:44:22.077Z,4.04
2018-02-19T12:47:28.177Z,4.01
2018-02-19T12:48:22.074Z,4.04
2018-02-19T12:49:22.221Z,4.04
2018-02-19T12:50:21.950Z,4.07
2018-02-19T12:51:22.086Z,4.06
2018-02-19T12:52:22.140Z,4.08
2018-02-19T12:53:21.924Z,4.08
2018-02-19T12:54:22.123Z,4.05
2018-02-19T12:55:21.927Z,4.03
2018-02-19T12:56:21.965Z,4.06
2018-02-19T12:57:22.120Z,4
2018-02-19T12:58:22.120Z,4.01
2018-02-19T12:59:22.096Z,3.96
2018-02-19T13:00:22.119Z,4.01
2018-02-19T13:01:22.179Z,4
2018-02-19T13:02:22.125Z,4.04
2018-02-19T13:03:22.166Z,4.02
2018-02-19T13:04:22.155Z,3.98
2018-02-19T13:05:22.128Z,4.02
2018-02-19T13:06:22.036Z,3.95
2018-02-19T13:07:22.135Z,4
2018-02-19T13:08:22.140Z,4.03
2018-02-19T13:09:22.181Z,4.03
2018-02-19T13:10:22.000Z,4.01
2018-02-19T13:11:22.152Z,4.01
2018-02-19T13:12:22.154Z,3.99
2018-02-19T13:13:22.220Z,3.99
2018-02-19T13:14:22.159Z,4.02
2018-02-19T13:15:22.079Z,4.03
2018-02-19T13:16:22.177Z,4.02
2018-02-19T13:17:22.027Z,4.02
2018-02-19T13:18:22.296Z,4.02
2018-02-19T13:19:22.083Z,4
2018-02-19T13:20:22.024Z,4.03
2018-02-19T13:21:22.032Z,4.02
2018-02-19T13:22:22.055Z,4.07
2018-02-19T13:23:22.057Z,4.07
2018-02-19T13:24:22.272Z,4.08